createdAt,value
2023-04-17T00:00:40.796Z,99.90
2023-04-17T00:03:07.934Z,99.90
2023-04-17T00:05:34.896Z,99.90
2023-04-17T00:08:02.460Z,99.90
2023-04-17T00:10:29.318Z,99.90
2023-04-17T00:12:56.323Z,99.90
2023-04-17T00:15:23.350Z,99.90
2023-04-17T00:17:50.196Z,99.90
2023-04-17T00:20:17.074Z,99.90
2023-04-17T00:22:44.051Z,99.90
2023-04-17T00:25:13.114Z,99.90
2023-04-17T00:27:41.310Z,99.90
2023-04-17T00:30:08.823Z,99.90
2023-04-17T00:32:35.908Z,99.90
2023-04-17T00:35:02.797Z,99.90
2023-04-17T00:37:29.614Z,99.90
2023-04-17T00:39:56.462Z,99.90
2023-04-17T00:42:23.317Z,99.90
2023-04-17T00:44:50.091Z,99.90
2023-04-17T00:47:17.484Z,99.90
2023-04-17T00:49:44.375Z,99.90
2023-04-17T00:52:11.894Z,99.90
2023-04-17T00:54:38.724Z,99.90
2023-04-17T00:57:06.424Z,99.90
2023-04-17T00:59:34.062Z,99.90
2023-04-17T01:02:01.179Z,99.90
2023-04-17T01:04:28.151Z,99.90
2023-04-17T01:06:55.077Z,99.90
2023-04-17T01:09:21.880Z,99.90
2023-04-17T01:11:48.693Z,99.90
2023-04-17T01:14:15.632Z,99.90
2023-04-17T01:16:44.577Z,99.90
2023-04-17T01:19:13.964Z,99.90
2023-04-17T01:21:41.214Z,99.90
2023-04-17T01:24:08.464Z,99.90
2023-04-17T01:26:35.855Z,99.90
2023-04-17T01:29:02.722Z,99.90
2023-04-17T01:31:30.212Z,99.90
2023-04-17T01:33:57.113Z,99.90
2023-04-17T01:36:23.994Z,99.90
2023-04-17T01:38:50.801Z,99.90
2023-04-17T01:41:17.665Z,99.90
2023-04-17T01:43:46.960Z,99.90
2023-04-17T01:46:15.159Z,99.90
2023-04-17T01:48:41.988Z,99.90
2023-04-17T01:51:08.857Z,99.90
2023-04-17T01:53:38.087Z,99.90
2023-04-17T01:56:05.132Z,99.90
2023-04-17T01:58:31.974Z,99.90
2023-04-17T02:00:59.638Z,99.90
2023-04-17T02:03:26.808Z,99.90
2023-04-17T02:05:54.058Z,99.90
2023-04-17T02:08:21.522Z,99.90
2023-04-17T02:10:48.368Z,99.90
2023-04-17T02:13:15.428Z,99.90
2023-04-17T02:15:42.710Z,99.90
2023-04-17T02:18:09.836Z,99.90
2023-04-17T02:20:37.520Z,99.90
2023-04-17T02:23:05.990Z,99.90
2023-04-17T02:25:33.692Z,99.90
2023-04-17T02:28:01.105Z,99.90
2023-04-17T02:30:28.598Z,99.90
2023-04-17T02:32:56.252Z,99.90
2023-04-17T02:35:28.123Z,99.90
2023-04-17T02:37:54.966Z,99.90
2023-04-17T02:40:21.798Z,99.90
2023-04-17T02:42:48.681Z,99.90
2023-04-17T02:45:15.616Z,99.90
2023-04-17T02:47:42.563Z,99.90
2023-04-17T02:50:10.096Z,99.90
2023-04-17T02:52:36.988Z,99.90
2023-04-17T02:55:04.175Z,99.90
2023-04-17T02:57:31.102Z,99.90
2023-04-17T02:59:57.982Z,99.90
2023-04-17T03:02:25.024Z,99.90
2023-04-17T03:04:52.223Z,99.90
2023-04-17T03:07:19.994Z,99.90
2023-04-17T03:09:47.903Z,99.90
2023-04-17T03:12:15.697Z,99.90
2023-04-17T03:14:43.454Z,99.90
2023-04-17T03:17:11.785Z,99.90
2023-04-17T03:19:38.604Z,99.90
2023-04-17T03:22:05.846Z,99.90
2023-04-17T03:24:33.027Z,99.90
2023-04-17T03:27:00.823Z,99.90
2023-04-17T03:29:27.855Z,99.90
2023-04-17T03:31:54.785Z,99.90
2023-04-17T03:34:22.152Z,99.90
2023-04-17T03:36:49.250Z,99.90
2023-04-17T03:39:16.312Z,99.90
2023-04-17T03:41:43.384Z,99.90
2023-04-17T03:44:10.450Z,99.90
2023-04-17T03:46:38.309Z,99.90
2023-04-17T03:49:05.626Z,99.90
2023-04-17T03:51:32.822Z,99.90
2023-04-17T03:53:59.836Z,99.90
2023-04-17T03:56:27.192Z,99.90
2023-04-17T03:58:54.042Z,99.90
2023-04-17T04:01:22.363Z,99.90
2023-04-17T04:03:49.638Z,99.90
2023-04-17T04:06:20.358Z,99.90
2023-04-17T04:08:47.382Z,99.90
2023-04-17T04:11:14.283Z,99.90
2023-04-17T04:13:41.191Z,99.90
2023-04-17T04:16:08.641Z,99.90
2023-04-17T04:18:36.658Z,99.90
2023-04-17T04:21:03.665Z,99.90
2023-04-17T04:23:30.727Z,99.90
2023-04-17T04:25:58.102Z,99.90
2023-04-17T04:28:28.276Z,99.90
2023-04-17T04:30:55.259Z,99.90
2023-04-17T04:33:22.340Z,99.90
2023-04-17T04:35:49.566Z,99.90
2023-04-17T04:38:17.119Z,99.90
2023-04-17T04:40:52.141Z,99.90
2023-04-17T04:43:21.573Z,99.90
2023-04-17T04:45:49.169Z,99.90
2023-04-17T04:48:16.117Z,99.90
2023-04-17T04:50:42.943Z,99.90
2023-04-17T04:53:09.846Z,99.90
2023-04-17T04:55:36.712Z,99.90
2023-04-17T04:58:03.557Z,99.90
2023-04-17T05:00:30.495Z,99.90
2023-04-17T05:02:57.446Z,99.90
2023-04-17T05:05:25.400Z,99.90
2023-04-17T05:07:56.052Z,99.90
2023-04-17T05:10:24.049Z,99.90
2023-04-17T05:12:50.804Z,99.90
2023-04-17T05:15:17.714Z,99.90
2023-04-17T05:17:44.885Z,99.90
2023-04-17T05:20:15.139Z,99.90
2023-04-17T05:22:42.452Z,99.90
2023-04-17T05:25:09.429Z,99.90
2023-04-17T05:27:37.723Z,99.90
2023-04-17T05:30:05.696Z,99.90
2023-04-17T05:32:32.660Z,99.90
2023-04-17T05:34:59.551Z,99.90
2023-04-17T05:37:26.469Z,99.90
2023-04-17T05:39:53.446Z,99.90
2023-04-17T05:42:20.387Z,99.90
2023-04-17T05:44:47.308Z,99.90
2023-04-17T05:47:14.288Z,99.90
2023-04-17T05:49:42.414Z,99.90
2023-04-17T05:52:09.611Z,99.90
2023-04-17T05:54:36.514Z,99.90
2023-04-17T05:57:04.080Z,99.90
2023-04-17T05:59:31.283Z,99.90
2023-04-17T06:02:00.004Z,99.90
2023-04-17T06:04:28.522Z,99.90
2023-04-17T06:06:55.759Z,99.90
2023-04-17T06:09:24.471Z,99.90
2023-04-17T06:11:52.524Z,99.90
2023-04-17T06:14:19.519Z,99.90
2023-04-17T06:16:46.381Z,99.90
2023-04-17T06:19:13.585Z,99.90
2023-04-17T06:21:41.116Z,99.90
2023-04-17T06:24:08.669Z,99.90
2023-04-17T06:26:35.633Z,99.90
2023-04-17T06:29:02.480Z,99.90
2023-04-17T06:31:29.558Z,99.90
2023-04-17T06:33:56.592Z,99.90
2023-04-17T06:36:23.534Z,99.90
2023-04-17T06:38:50.618Z,99.90
2023-04-17T06:41:17.447Z,99.90
2023-04-17T06:43:44.486Z,99.90
2023-04-17T06:46:11.353Z,99.90
2023-04-17T06:48:38.335Z,99.90
2023-04-17T06:51:05.397Z,99.90
2023-04-17T06:53:32.346Z,99.90
2023-04-17T06:56:00.937Z,99.90
2023-04-17T06:58:27.775Z,99.90
2023-04-17T07:00:54.699Z,99.90
2023-04-17T07:03:21.703Z,99.90
2023-04-17T07:05:48.998Z,99.90
2023-04-17T07:08:16.089Z,99.90
2023-04-17T07:10:42.930Z,99.90
2023-04-17T07:13:09.738Z,99.90
2023-04-17T07:15:36.844Z,99.90
2023-04-17T07:18:03.892Z,99.90
2023-04-17T07:20:31.032Z,99.90
2023-04-17T07:22:57.845Z,99.90
2023-04-17T07:25:24.957Z,99.90
2023-04-17T07:27:56.929Z,99.90
2023-04-17T07:30:23.861Z,99.90
2023-04-17T07:32:51.041Z,99.90
2023-04-17T07:35:17.947Z,99.90
2023-04-17T07:37:44.815Z,99.90
2023-04-17T07:40:11.900Z,99.90
2023-04-17T07:42:38.762Z,99.90
2023-04-17T07:45:06.441Z,99.90
2023-04-17T07:47:33.500Z,99.90
2023-04-17T07:50:00.378Z,99.90
2023-04-17T07:52:27.415Z,99.90
2023-04-17T07:54:55.507Z,99.90
2023-04-17T07:57:26.400Z,99.90
2023-04-17T07:59:55.626Z,99.90
2023-04-17T08:02:22.966Z,99.90
2023-04-17T08:04:49.953Z,99.90
2023-04-17T08:07:18.248Z,99.90
2023-04-17T08:09:45.119Z,99.90
2023-04-17T08:12:13.534Z,99.90
2023-04-17T08:14:42.053Z,99.90
2023-04-17T08:17:09.039Z,99.90
2023-04-17T08:19:35.970Z,99.90
2023-04-17T08:22:05.026Z,99.90
2023-04-17T08:24:32.038Z,99.90
2023-04-17T08:26:59.272Z,99.90
2023-04-17T08:29:26.779Z,99.90
2023-04-17T08:32:03.349Z,99.90
2023-04-17T08:34:40.291Z,99.90
2023-04-17T08:37:07.521Z,99.90
2023-04-17T08:39:34.361Z,99.90
2023-04-17T08:42:07.105Z,99.90
2023-04-17T08:44:34.047Z,99.90
2023-04-17T08:47:02.522Z,99.90
2023-04-17T08:49:30.534Z,99.90
2023-04-17T08:51:57.638Z,99.90
2023-04-17T08:54:24.637Z,99.90
2023-04-17T08:56:54.098Z,99.90
2023-04-17T08:59:22.246Z,99.90
2023-04-17T09:02:05.356Z,99.90
2023-04-17T09:04:39.914Z,99.90
2023-04-17T09:07:08.582Z,99.90
2023-04-17T09:09:54.689Z,99.90
2023-04-17T09:12:23.928Z,99.90
2023-04-17T09:14:51.172Z,99.90
2023-04-17T09:17:20.250Z,99.90
2023-04-17T09:20:14.751Z,99.90
2023-04-17T09:22:42.853Z,99.90
2023-04-17T09:25:20.712Z,99.90
2023-04-17T09:27:47.780Z,99.90
2023-04-17T09:30:14.997Z,99.90
2023-04-17T09:32:42.024Z,99.90
2023-04-17T09:35:09.286Z,99.90
2023-04-17T09:37:54.300Z,99.90
2023-04-17T09:40:23.509Z,99.90
2023-04-17T09:43:02.234Z,99.90
2023-04-17T09:45:35.959Z,99.90
2023-04-17T09:48:08.307Z,99.90
2023-04-17T09:50:36.570Z,99.90
2023-04-17T09:53:06.335Z,99.90
2023-04-17T09:55:34.667Z,99.90
2023-04-17T09:58:03.635Z,99.90
2023-04-17T10:00:31.159Z,99.90
2023-04-17T10:02:59.523Z,99.90
2023-04-17T10:05:32.343Z,99.90
2023-04-17T10:07:59.857Z,99.90
2023-04-17T10:10:34.799Z,99.90
2023-04-17T10:13:04.703Z,99.90
2023-04-17T10:15:32.282Z,99.90
2023-04-17T10:18:19.241Z,99.90
2023-04-17T10:20:48.470Z,99.90
2023-04-17T10:23:35.756Z,99.90
2023-04-17T10:26:30.615Z,99.90
2023-04-17T10:28:57.920Z,99.90
2023-04-17T10:32:07.764Z,99.90
2023-04-17T10:34:36.435Z,99.90
2023-04-17T10:37:04.991Z,99.90
2023-04-17T10:40:02.273Z,99.90
2023-04-17T10:42:30.199Z,99.90
2023-04-17T10:45:01.746Z,99.90
2023-04-17T10:47:32.584Z,99.90
2023-04-17T10:50:01.696Z,99.90
2023-04-17T10:52:41.581Z,99.90
2023-04-17T10:55:30.329Z,99.90
2023-04-17T10:58:02.297Z,99.90
2023-04-17T11:00:39.700Z,99.70
2023-04-17T11:03:07.300Z,98.70
2023-04-17T11:05:35.780Z,99.10
2023-04-17T11:08:02.919Z,97.50
2023-04-17T11:10:29.911Z,94.90
2023-04-17T11:12:59.856Z,95.70
2023-04-17T11:15:32.144Z,92.40
2023-04-17T11:17:59.991Z,93.80
2023-04-17T11:20:32.881Z,91.80
2023-04-17T11:23:04.008Z,92.50
2023-04-17T11:25:33.555Z,91.30
2023-04-17T11:28:05.597Z,90.20
2023-04-17T11:30:40.520Z,90.30
2023-04-17T11:33:08.484Z,87.40
2023-04-17T11:35:39.983Z,88.80
2023-04-17T11:38:21.588Z,89.50
2023-04-17T11:40:53.975Z,86.30
2023-04-17T11:43:23.503Z,88.80
2023-04-17T11:45:52.903Z,89.90
2023-04-17T11:48:28.748Z,90.50
2023-04-17T11:51:06.641Z,89.00
2023-04-17T11:53:37.762Z,87.90
2023-04-17T11:56:31.173Z,90.00
2023-04-17T11:58:59.387Z,92.30
2023-04-17T12:01:27.994Z,93.20
2023-04-17T12:03:59.597Z,94.20
2023-04-17T12:06:37.441Z,95.10
2023-04-17T12:09:06.418Z,95.10
2023-04-17T12:11:33.488Z,95.30
2023-04-17T12:14:02.528Z,93.50
2023-04-17T12:16:29.798Z,93.80
2023-04-17T12:18:57.565Z,94.10
2023-04-17T12:21:24.389Z,94.20
2023-04-17T12:23:51.622Z,93.30
2023-04-17T12:26:18.684Z,93.20
2023-04-17T12:28:45.777Z,93.00
2023-04-17T12:31:12.913Z,92.10
2023-04-17T12:33:39.753Z,92.70
2023-04-17T12:36:07.171Z,92.10
2023-04-17T12:38:34.133Z,90.70
2023-04-17T12:41:01.067Z,90.90
2023-04-17T12:43:27.929Z,90.90
2023-04-17T12:45:55.108Z,90.80
2023-04-17T12:48:21.941Z,87.30
2023-04-17T12:50:48.848Z,89.20
2023-04-17T12:53:16.200Z,90.50
2023-04-17T12:55:44.501Z,88.70
2023-04-17T12:58:12.859Z,89.70
2023-04-17T13:00:43.779Z,85.30
2023-04-17T13:03:11.917Z,86.30
2023-04-17T13:05:39.511Z,85.30
2023-04-17T13:08:06.403Z,82.20
2023-04-17T13:10:34.316Z,84.40
2023-04-17T13:13:02.330Z,80.40
2023-04-17T13:15:29.293Z,81.70
2023-04-17T13:17:56.280Z,80.00
2023-04-17T13:20:23.240Z,78.90
2023-04-17T13:22:50.240Z,76.80
2023-04-17T13:25:17.217Z,75.20
2023-04-17T13:27:44.148Z,73.60
2023-04-17T13:30:11.784Z,69.80
2023-04-17T13:32:40.382Z,72.60
2023-04-17T13:35:09.665Z,71.70
2023-04-17T13:37:36.788Z,73.30
2023-04-17T13:40:05.462Z,75.20
2023-04-17T13:42:32.519Z,76.80
2023-04-17T13:44:59.544Z,75.90
2023-04-17T13:47:26.509Z,74.50
2023-04-17T13:49:53.541Z,69.10
2023-04-17T13:52:21.063Z,71.30
2023-04-17T13:54:48.579Z,69.10
2023-04-17T13:57:18.433Z,68.30
2023-04-17T13:59:45.619Z,66.90
2023-04-17T14:02:12.593Z,66.20
2023-04-17T14:04:39.587Z,66.20
2023-04-17T14:07:06.844Z,68.30
2023-04-17T14:09:33.752Z,68.80
2023-04-17T14:12:01.596Z,69.10
2023-04-17T14:14:28.386Z,67.20
2023-04-17T14:16:55.431Z,64.90
2023-04-17T14:19:23.811Z,64.50
2023-04-17T14:21:50.757Z,61.30
2023-04-17T14:24:17.777Z,63.10
2023-04-17T14:26:44.720Z,62.50
2023-04-17T14:29:13.959Z,62.80
2023-04-17T14:31:41.416Z,62.20
2023-04-17T14:34:08.601Z,61.30
2023-04-17T14:36:35.866Z,61.70
2023-04-17T14:39:03.087Z,61.90
2023-04-17T14:41:33.927Z,62.20
2023-04-17T14:44:01.160Z,60.80
2023-04-17T14:46:28.166Z,59.70
2023-04-17T14:48:56.218Z,60.40
2023-04-17T14:51:27.418Z,61.00
2023-04-17T14:53:55.288Z,62.30
2023-04-17T14:56:22.190Z,61.80
2023-04-17T14:58:49.101Z,61.10
2023-04-17T15:01:16.262Z,59.00
2023-04-17T15:03:46.760Z,60.40
2023-04-17T15:06:15.803Z,62.30
2023-04-17T15:08:42.796Z,62.10
2023-04-17T15:11:11.880Z,61.30
2023-04-17T15:13:40.448Z,61.20
2023-04-17T15:16:09.478Z,61.10
2023-04-17T15:18:36.678Z,60.00
2023-04-17T15:21:03.605Z,59.80
2023-04-17T15:23:30.881Z,59.60
2023-04-17T15:25:58.284Z,59.70
2023-04-17T15:28:25.601Z,58.90
2023-04-17T15:30:52.524Z,61.30
2023-04-17T15:33:19.712Z,60.60
2023-04-17T15:35:48.503Z,59.50
2023-04-17T15:38:15.308Z,59.00
2023-04-17T15:40:42.334Z,58.60
2023-04-17T15:43:10.672Z,60.50
2023-04-17T15:45:37.801Z,60.40
2023-04-17T15:48:05.169Z,59.50
2023-04-17T15:50:35.517Z,58.70
2023-04-17T15:53:02.842Z,58.20
2023-04-17T15:55:29.884Z,59.00
2023-04-17T15:57:57.028Z,57.20
2023-04-17T16:00:24.052Z,58.90
2023-04-17T16:02:51.983Z,59.40
2023-04-17T16:05:22.279Z,59.80
2023-04-17T16:07:49.098Z,61.00
2023-04-17T16:10:16.645Z,62.00
2023-04-17T16:12:47.053Z,63.20
2023-04-17T16:15:16.387Z,63.30
2023-04-17T16:17:43.719Z,63.80
2023-04-17T16:20:14.202Z,64.10
2023-04-17T16:22:41.152Z,65.40
2023-04-17T16:25:10.412Z,66.90
2023-04-17T16:27:37.881Z,67.20
2023-04-17T16:30:08.736Z,67.30
2023-04-17T16:32:35.921Z,68.40
2023-04-17T16:35:03.115Z,69.80
2023-04-17T16:37:30.019Z,70.10
2023-04-17T16:39:57.092Z,70.50
2023-04-17T16:42:26.880Z,71.60
2023-04-17T16:44:55.873Z,71.10
2023-04-17T16:47:22.857Z,69.90
2023-04-17T16:49:50.610Z,70.60
2023-04-17T16:52:17.491Z,70.70
2023-04-17T16:54:44.325Z,71.50
2023-04-17T16:57:11.401Z,72.10
2023-04-17T16:59:38.290Z,71.90
2023-04-17T17:02:07.333Z,72.40
2023-04-17T17:04:37.300Z,73.00
2023-04-17T17:07:08.526Z,73.10
2023-04-17T17:09:35.528Z,73.20
2023-04-17T17:12:03.445Z,73.50
2023-04-17T17:14:30.270Z,73.80
2023-04-17T17:16:57.407Z,74.40
2023-04-17T17:19:24.291Z,75.00
2023-04-17T17:21:51.123Z,75.00
2023-04-17T17:24:18.147Z,75.40
2023-04-17T17:26:45.117Z,76.20
2023-04-17T17:29:12.240Z,76.50
2023-04-17T17:31:39.343Z,77.30
2023-04-17T17:34:25.367Z,77.70
2023-04-17T17:36:53.317Z,78.70
2023-04-17T17:39:22.310Z,80.30
2023-04-17T17:41:49.824Z,82.80
2023-04-17T17:44:18.069Z,82.40
2023-04-17T17:46:45.002Z,84.20
2023-04-17T17:49:11.885Z,85.30
2023-04-17T17:51:38.736Z,86.30
2023-04-17T17:54:05.682Z,87.30
2023-04-17T17:56:32.614Z,88.50
2023-04-17T17:58:59.499Z,89.30
2023-04-17T18:01:26.554Z,90.70
2023-04-17T18:03:53.913Z,91.00
2023-04-17T18:06:21.226Z,91.60
2023-04-17T18:08:48.407Z,92.10
2023-04-17T18:11:15.403Z,93.00
2023-04-17T18:13:42.305Z,93.60
2023-04-17T18:16:09.772Z,94.20
2023-04-17T18:18:37.178Z,95.40
2023-04-17T18:21:11.550Z,95.80
2023-04-17T18:23:38.551Z,96.60
2023-04-17T18:26:05.545Z,96.70
2023-04-17T18:28:36.211Z,98.20
2023-04-17T18:31:03.076Z,98.00
2023-04-17T18:33:30.108Z,99.10
2023-04-17T18:35:56.971Z,99.60
2023-04-17T18:38:27.685Z,99.90
2023-04-17T18:40:59.391Z,99.90
2023-04-17T18:43:27.080Z,99.90
2023-04-17T18:45:57.215Z,99.90
2023-04-17T18:48:25.194Z,99.90
2023-04-17T18:50:52.104Z,99.90
2023-04-17T18:53:19.010Z,99.90
2023-04-17T18:55:48.444Z,99.90
2023-04-17T18:58:18.045Z,99.90
2023-04-17T19:00:45.179Z,99.90
2023-04-17T19:03:12.165Z,99.90
2023-04-17T19:05:39.107Z,99.90
2023-04-17T19:08:09.083Z,99.90
2023-04-17T19:10:39.546Z,99.90
2023-04-17T19:13:09.865Z,99.90
2023-04-17T19:15:36.859Z,99.90
2023-04-17T19:18:03.878Z,99.90
2023-04-17T19:20:30.850Z,99.90
2023-04-17T19:22:59.558Z,99.90
2023-04-17T19:25:26.788Z,99.90
2023-04-17T19:27:56.576Z,99.90
2023-04-17T19:30:23.579Z,99.90
2023-04-17T19:32:51.916Z,99.90
2023-04-17T19:35:19.212Z,99.90
2023-04-17T19:37:46.237Z,99.90
2023-04-17T19:40:24.199Z,99.90
2023-04-17T19:42:52.234Z,99.90
2023-04-17T19:45:20.921Z,99.90
2023-04-17T19:47:56.508Z,99.90
2023-04-17T19:50:32.141Z,99.90
2023-04-17T19:52:59.102Z,99.90
2023-04-17T19:55:25.937Z,99.90
2023-04-17T19:57:52.957Z,99.90
2023-04-17T20:00:19.967Z,99.90
2023-04-17T20:02:47.857Z,99.90
2023-04-17T20:05:15.136Z,99.90
2023-04-17T20:07:42.003Z,99.90
2023-04-17T20:10:09.285Z,99.90
2023-04-17T20:12:36.337Z,99.90
2023-04-17T20:15:03.952Z,99.90
2023-04-17T20:17:31.011Z,99.90
2023-04-17T20:20:03.358Z,99.90
2023-04-17T20:22:30.176Z,99.10
2023-04-17T20:24:57.204Z,99.30
2023-04-17T20:27:24.064Z,98.80
2023-04-17T20:29:51.030Z,98.80
2023-04-17T20:32:18.271Z,98.60
2023-04-17T20:34:45.163Z,98.20
2023-04-17T20:37:13.506Z,97.90
2023-04-17T20:39:40.978Z,98.10
2023-04-17T20:42:07.849Z,98.10
2023-04-17T20:44:34.715Z,98.10
2023-04-17T20:47:01.699Z,97.80
2023-04-17T20:49:29.020Z,97.30
2023-04-17T20:51:55.837Z,96.90
2023-04-17T20:54:23.357Z,96.10
2023-04-17T20:56:50.292Z,95.90
2023-04-17T20:59:17.241Z,95.60
2023-04-17T21:01:44.303Z,94.90
2023-04-17T21:04:11.820Z,94.30
2023-04-17T21:06:39.043Z,94.40
2023-04-17T21:09:06.353Z,93.70
2023-04-17T21:11:33.330Z,93.60
2023-04-17T21:14:00.645Z,93.90
2023-04-17T21:16:28.522Z,94.00
2023-04-17T21:18:55.447Z,93.80
2023-04-17T21:21:22.312Z,93.40
2023-04-17T21:23:49.129Z,93.20
2023-04-17T21:26:16.411Z,92.70
2023-04-17T21:28:43.613Z,92.90
2023-04-17T21:31:15.290Z,92.80
2023-04-17T21:33:42.272Z,92.80
2023-04-17T21:36:09.357Z,92.60
2023-04-17T21:38:36.209Z,92.40
2023-04-17T21:41:03.162Z,92.40
2023-04-17T21:43:30.750Z,92.70
2023-04-17T21:45:57.751Z,92.80
2023-04-17T21:48:24.660Z,93.10
2023-04-17T21:50:51.698Z,93.10
2023-04-17T21:53:18.487Z,92.80
2023-04-17T21:55:45.451Z,92.70
2023-04-17T21:58:12.258Z,92.80
2023-04-17T22:00:39.195Z,93.00
2023-04-17T22:03:06.080Z,92.70
2023-04-17T22:05:33.007Z,92.90
2023-04-17T22:08:01.331Z,93.00
2023-04-17T22:10:29.172Z,93.00
2023-04-17T22:16:01.051Z,92.60
2023-04-17T22:18:28.027Z,93.00
2023-04-17T22:20:55.038Z,93.30
2023-04-17T22:23:21.947Z,93.50
2023-04-17T22:25:48.767Z,93.60
2023-04-17T22:28:15.675Z,93.70
2023-04-17T22:30:42.557Z,93.60
2023-04-17T22:33:09.415Z,93.60
2023-04-17T22:35:36.374Z,93.60
2023-04-17T22:38:03.166Z,93.80
2023-04-17T22:40:30.243Z,93.90
2023-04-17T22:42:57.050Z,94.00
2023-04-17T22:45:23.882Z,94.00
2023-04-17T22:47:50.762Z,94.20
2023-04-17T22:50:17.805Z,94.40
2023-04-17T22:52:44.664Z,94.80
2023-04-17T22:55:11.659Z,94.80
2023-04-17T22:57:38.523Z,94.80
2023-04-17T23:00:07.914Z,95.10
2023-04-17T23:02:35.760Z,95.40
2023-04-17T23:05:02.935Z,95.60
2023-04-17T23:07:30.050Z,95.70
2023-04-17T23:09:56.910Z,96.00
2023-04-17T23:12:23.769Z,96.00
2023-04-17T23:14:50.615Z,96.20
2023-04-17T23:17:17.453Z,96.00
2023-04-17T23:19:44.255Z,96.10
2023-04-17T23:22:11.190Z,96.20
2023-04-17T23:24:38.058Z,96.20
2023-04-17T23:27:04.887Z,96.50
2023-04-17T23:29:31.859Z,96.20
2023-04-17T23:31:58.797Z,96.50
2023-04-17T23:34:27.268Z,96.70
2023-04-17T23:36:54.083Z,96.50
2023-04-17T23:39:20.965Z,96.60
2023-04-17T23:41:47.920Z,96.50
2023-04-17T23:44:15.074Z,96.50
2023-04-17T23:46:42.294Z,96.80
2023-04-17T23:49:09.145Z,96.50
2023-04-17T23:51:36.083Z,96.60
2023-04-17T23:54:03.164Z,96.60
2023-04-17T23:56:32.559Z,96.70
2023-04-17T23:58:59.449Z,96.70
